sensor_id;sensor_type;location;lat;lon;timestamp;P1;durP1;ratioP1;P2;durP2;ratioP2
71773;SDS011;59607;52.130;5.430;2023-04-25T00:02:16;7.55;;;1.50;;
71773;SDS011;59607;52.130;5.430;2023-04-25T00:04:44;10.13;;;1.60;;
71773;SDS011;59607;52.130;5.430;2023-04-25T00:07:18;9.07;;;1.93;;
71773;SDS011;59607;52.130;5.430;2023-04-25T00:09:51;14.45;;;2.20;;
71773;SDS011;59607;52.130;5.430;2023-04-25T00:12:20;6.80;;;1.60;;
71773;SDS011;59607;52.130;5.430;2023-04-25T00:14:52;9.68;;;2.20;;
71773;SDS011;59607;52.130;5.430;2023-04-25T00:17:19;8.77;;;1.75;;
71773;SDS011;59607;52.130;5.430;2023-04-25T00:19:46;13.27;;;1.90;;
71773;SDS011;59607;52.130;5.430;2023-04-25T00:22:16;15.25;;;2.17;;
71773;SDS011;59607;52.130;5.430;2023-04-25T00:24:43;11.55;;;2.03;;
71773;SDS011;59607;52.130;5.430;2023-04-25T00:27:10;10.70;;;1.38;;
71773;SDS011;59607;52.130;5.430;2023-04-25T00:29:39;11.32;;;1.67;;
71773;SDS011;59607;52.130;5.430;2023-04-25T00:32:16;7.57;;;1.40;;
71773;SDS011;59607;52.130;5.430;2023-04-25T00:34:45;21.55;;;2.00;;
71773;SDS011;59607;52.130;5.430;2023-04-25T00:37:19;7.72;;;1.50;;
71773;SDS011;59607;52.130;5.430;2023-04-25T00:39:48;10.50;;;1.70;;
71773;SDS011;59607;52.130;5.430;2023-04-25T00:42:17;9.95;;;1.80;;
71773;SDS011;59607;52.130;5.430;2023-04-25T00:44:48;10.53;;;1.33;;
71773;SDS011;59607;52.130;5.430;2023-04-25T00:47:18;10.25;;;1.77;;
71773;SDS011;59607;52.130;5.430;2023-04-25T00:49:45;9.35;;;1.45;;
71773;SDS011;59607;52.130;5.430;2023-04-25T00:52:15;7.80;;;1.70;;
71773;SDS011;59607;52.130;5.430;2023-04-25T00:54:49;7.68;;;1.58;;
71773;SDS011;59607;52.130;5.430;2023-04-25T00:57:18;6.27;;;1.47;;
71773;SDS011;59607;52.130;5.430;2023-04-25T00:59:47;12.60;;;1.40;;
71773;SDS011;59607;52.130;5.430;2023-04-25T01:02:17;9.50;;;1.38;;
71773;SDS011;59607;52.130;5.430;2023-04-25T01:04:47;10.18;;;1.98;;
71773;SDS011;59607;52.130;5.430;2023-04-25T01:07:14;10.88;;;1.50;;
71773;SDS011;59607;52.130;5.430;2023-04-25T01:09:44;17.33;;;1.80;;
71773;SDS011;59607;52.130;5.430;2023-04-25T01:12:11;6.88;;;1.80;;
71773;SDS011;59607;52.130;5.430;2023-04-25T01:14:38;12.73;;;2.03;;
71773;SDS011;59607;52.130;5.430;2023-04-25T01:17:15;9.90;;;1.25;;
71773;SDS011;59607;52.130;5.430;2023-04-25T01:19:42;8.02;;;2.13;;
71773;SDS011;59607;52.130;5.430;2023-04-25T01:22:16;11.97;;;2.00;;
71773;SDS011;59607;52.130;5.430;2023-04-25T01:24:43;7.30;;;1.63;;
71773;SDS011;59607;52.130;5.430;2023-04-25T01:27:10;9.65;;;1.80;;
71773;SDS011;59607;52.130;5.430;2023-04-25T01:29:42;10.70;;;1.90;;
71773;SDS011;59607;52.130;5.430;2023-04-25T01:32:10;9.13;;;1.45;;
71773;SDS011;59607;52.130;5.430;2023-04-25T01:34:40;6.93;;;1.80;;
71773;SDS011;59607;52.130;5.430;2023-04-25T01:37:09;10.43;;;1.70;;
71773;SDS011;59607;52.130;5.430;2023-04-25T01:39:42;6.53;;;1.23;;
71773;SDS011;59607;52.130;5.430;2023-04-25T01:42:11;10.95;;;1.77;;
71773;SDS011;59607;52.130;5.430;2023-04-25T01:44:41;12.52;;;1.58;;
71773;SDS011;59607;52.130;5.430;2023-04-25T01:47:15;16.23;;;1.60;;
71773;SDS011;59607;52.130;5.430;2023-04-25T01:49:42;10.05;;;1.52;;
71773;SDS011;59607;52.130;5.430;2023-04-25T01:52:14;10.38;;;1.70;;
71773;SDS011;59607;52.130;5.430;2023-04-25T01:54:40;12.77;;;1.33;;
71773;SDS011;59607;52.130;5.430;2023-04-25T01:57:10;8.57;;;1.40;;
71773;SDS011;59607;52.130;5.430;2023-04-25T01:59:43;9.23;;;2.33;;
71773;SDS011;59607;52.130;5.430;2023-04-25T02:02:09;14.13;;;1.17;;
71773;SDS011;59607;52.130;5.430;2023-04-25T02:04:45;14.65;;;1.52;;
71773;SDS011;59607;52.130;5.430;2023-04-25T02:07:17;6.43;;;1.52;;
71773;SDS011;59607;52.130;5.430;2023-04-25T02:09:43;5.43;;;1.02;;
71773;SDS011;59607;52.130;5.430;2023-04-25T02:12:10;8.70;;;1.60;;
71773;SDS011;59607;52.130;5.430;2023-04-25T02:14:36;6.93;;;1.27;;
71773;SDS011;59607;52.130;5.430;2023-04-25T02:17:07;13.43;;;1.30;;
71773;SDS011;59607;52.130;5.430;2023-04-25T02:19:34;9.98;;;1.27;;
71773;SDS011;59607;52.130;5.430;2023-04-25T02:22:03;5.45;;;1.05;;
71773;SDS011;59607;52.130;5.430;2023-04-25T02:24:40;9.47;;;1.07;;
71773;SDS011;59607;52.130;5.430;2023-04-25T02:27:09;8.00;;;1.73;;
71773;SDS011;59607;52.130;5.430;2023-04-25T02:29:43;9.43;;;0.80;;
71773;SDS011;59607;52.130;5.430;2023-04-25T02:32:26;10.23;;;1.13;;
71773;SDS011;59607;52.130;5.430;2023-04-25T02:34:53;5.85;;;1.20;;
71773;SDS011;59607;52.130;5.430;2023-04-25T02:37:24;9.67;;;1.50;;
71773;SDS011;59607;52.130;5.430;2023-04-25T02:39:50;8.18;;;1.40;;
71773;SDS011;59607;52.130;5.430;2023-04-25T02:42:22;5.60;;;1.23;;
71773;SDS011;59607;52.130;5.430;2023-04-25T02:44:48;9.98;;;2.03;;
71773;SDS011;59607;52.130;5.430;2023-04-25T02:47:15;5.75;;;1.67;;
71773;SDS011;59607;52.130;5.430;2023-04-25T02:49:47;7.97;;;1.37;;
71773;SDS011;59607;52.130;5.430;2023-04-25T02:52:14;5.03;;;1.13;;
71773;SDS011;59607;52.130;5.430;2023-04-25T02:54:43;5.10;;;1.60;;
71773;SDS011;59607;52.130;5.430;2023-04-25T02:57:10;4.95;;;0.98;;
71773;SDS011;59607;52.130;5.430;2023-04-25T02:59:36;4.85;;;1.40;;
71773;SDS011;59607;52.130;5.430;2023-04-25T03:02:04;9.90;;;1.53;;
71773;SDS011;59607;52.130;5.430;2023-04-25T03:04:37;5.00;;;1.20;;
71773;SDS011;59607;52.130;5.430;2023-04-25T03:07:03;12.20;;;1.35;;
71773;SDS011;59607;52.130;5.430;2023-04-25T03:09:37;8.60;;;1.17;;
71773;SDS011;59607;52.130;5.430;2023-04-25T03:12:04;6.78;;;0.93;;
71773;SDS011;59607;52.130;5.430;2023-04-25T03:14:35;4.80;;;1.30;;
71773;SDS011;59607;52.130;5.430;2023-04-25T03:17:02;12.43;;;1.55;;
71773;SDS011;59607;52.130;5.430;2023-04-25T03:19:29;8.73;;;1.67;;
71773;SDS011;59607;52.130;5.430;2023-04-25T03:21:55;2.85;;;0.85;;
71773;SDS011;59607;52.130;5.430;2023-04-25T03:24:22;7.35;;;1.00;;
71773;SDS011;59607;52.130;5.430;2023-04-25T03:26:55;10.67;;;1.47;;
71773;SDS011;59607;52.130;5.430;2023-04-25T03:29:22;7.55;;;0.90;;
71773;SDS011;59607;52.130;5.430;2023-04-25T03:31:58;14.30;;;1.55;;
71773;SDS011;59607;52.130;5.430;2023-04-25T03:34:25;8.30;;;1.15;;
71773;SDS011;59607;52.130;5.430;2023-04-25T03:36:55;7.20;;;1.20;;
71773;SDS011;59607;52.130;5.430;2023-04-25T03:39:22;9.40;;;1.90;;
71773;SDS011;59607;52.130;5.430;2023-04-25T03:41:51;11.43;;;1.05;;
71773;SDS011;59607;52.130;5.430;2023-04-25T03:44:22;5.88;;;1.13;;
71773;SDS011;59607;52.130;5.430;2023-04-25T03:46:50;9.55;;;1.20;;
71773;SDS011;59607;52.130;5.430;2023-04-25T03:49:22;6.30;;;0.98;;
71773;SDS011;59607;52.130;5.430;2023-04-25T03:51:48;4.30;;;0.80;;
71773;SDS011;59607;52.130;5.430;2023-04-25T03:54:15;7.35;;;1.58;;
71773;SDS011;59607;52.130;5.430;2023-04-25T03:56:45;5.85;;;0.95;;
71773;SDS011;59607;52.130;5.430;2023-04-25T03:59:11;10.10;;;1.02;;
71773;SDS011;59607;52.130;5.430;2023-04-25T04:01:44;8.93;;;0.88;;
71773;SDS011;59607;52.130;5.430;2023-04-25T04:04:12;11.90;;;2.03;;
71773;SDS011;59607;52.130;5.430;2023-04-25T04:06:45;9.00;;;1.02;;
71773;SDS011;59607;52.130;5.430;2023-04-25T04:09:12;10.82;;;1.33;;
71773;SDS011;59607;52.130;5.430;2023-04-25T04:11:38;6.55;;;0.82;;
71773;SDS011;59607;52.130;5.430;2023-04-25T04:14:05;5.78;;;1.17;;
71773;SDS011;59607;52.130;5.430;2023-04-25T04:16:38;8.93;;;1.30;;
71773;SDS011;59607;52.130;5.430;2023-04-25T04:19:06;7.47;;;1.02;;
71773;SDS011;59607;52.130;5.430;2023-04-25T04:21:48;3.65;;;0.82;;
71773;SDS011;59607;52.130;5.430;2023-04-25T04:24:20;5.60;;;1.15;;
71773;SDS011;59607;52.130;5.430;2023-04-25T04:26:47;8.75;;;1.02;;
71773;SDS011;59607;52.130;5.430;2023-04-25T04:29:14;7.83;;;2.20;;
71773;SDS011;59607;52.130;5.430;2023-04-25T04:31:50;5.35;;;0.82;;
71773;SDS011;59607;52.130;5.430;2023-04-25T04:34:22;3.22;;;0.52;;
71773;SDS011;59607;52.130;5.430;2023-04-25T04:36:52;5.10;;;0.95;;
71773;SDS011;59607;52.130;5.430;2023-04-25T04:39:21;7.00;;;0.60;;
71773;SDS011;59607;52.130;5.430;2023-04-25T04:41:52;5.30;;;0.60;;
71773;SDS011;59607;52.130;5.430;2023-04-25T04:44:18;8.40;;;0.80;;
71773;SDS011;59607;52.130;5.430;2023-04-25T04:46:47;8.85;;;0.70;;
71773;SDS011;59607;52.130;5.430;2023-04-25T04:49:14;4.13;;;0.73;;
71773;SDS011;59607;52.130;5.430;2023-04-25T04:51:41;4.72;;;0.88;;
71773;SDS011;59607;52.130;5.430;2023-04-25T04:54:12;3.73;;;0.47;;
71773;SDS011;59607;52.130;5.430;2023-04-25T04:56:39;3.95;;;0.65;;
71773;SDS011;59607;52.130;5.430;2023-04-25T04:59:06;1.88;;;0.40;;
71773;SDS011;59607;52.130;5.430;2023-04-25T05:01:33;6.38;;;0.57;;
71773;SDS011;59607;52.130;5.430;2023-04-25T05:04:05;1.63;;;0.40;;
71773;SDS011;59607;52.130;5.430;2023-04-25T05:06:32;4.00;;;0.70;;
71773;SDS011;59607;52.130;5.430;2023-04-25T05:09:01;4.60;;;0.50;;
71773;SDS011;59607;52.130;5.430;2023-04-25T05:11:27;3.25;;;0.85;;
71773;SDS011;59607;52.130;5.430;2023-04-25T05:13:54;5.07;;;0.98;;
71773;SDS011;59607;52.130;5.430;2023-04-25T05:16:20;4.10;;;0.60;;
71773;SDS011;59607;52.130;5.430;2023-04-25T05:18:54;4.10;;;0.73;;
71773;SDS011;59607;52.130;5.430;2023-04-25T05:21:20;6.13;;;0.80;;
71773;SDS011;59607;52.130;5.430;2023-04-25T05:23:50;3.90;;;0.50;;
71773;SDS011;59607;52.130;5.430;2023-04-25T05:26:20;8.65;;;0.80;;
71773;SDS011;59607;52.130;5.430;2023-04-25T05:28:53;4.80;;;0.60;;
71773;SDS011;59607;52.130;5.430;2023-04-25T05:31:23;4.57;;;0.50;;
71773;SDS011;59607;52.130;5.430;2023-04-25T05:33:50;3.75;;;0.40;;
71773;SDS011;59607;52.130;5.430;2023-04-25T05:36:21;6.97;;;0.60;;
71773;SDS011;59607;52.130;5.430;2023-04-25T05:38:48;2.53;;;0.40;;
71773;SDS011;59607;52.130;5.430;2023-04-25T05:41:15;5.75;;;1.02;;
71773;SDS011;59607;52.130;5.430;2023-04-25T05:43:45;3.53;;;0.67;;
71773;SDS011;59607;52.130;5.430;2023-04-25T05:46:15;2.85;;;0.40;;
71773;SDS011;59607;52.130;5.430;2023-04-25T05:48:59;3.47;;;0.55;;
71773;SDS011;59607;52.130;5.430;2023-04-25T05:51:34;6.60;;;0.70;;
71773;SDS011;59607;52.130;5.430;2023-04-25T05:54:01;4.68;;;0.70;;
71773;SDS011;59607;52.130;5.430;2023-04-25T05:56:28;1.83;;;0.50;;
71773;SDS011;59607;52.130;5.430;2023-04-25T05:58:54;3.58;;;0.63;;
71773;SDS011;59607;52.130;5.430;2023-04-25T06:01:22;8.68;;;0.80;;
71773;SDS011;59607;52.130;5.430;2023-04-25T06:03:49;5.95;;;0.60;;
71773;SDS011;59607;52.130;5.430;2023-04-25T06:06:18;2.85;;;0.40;;
71773;SDS011;59607;52.130;5.430;2023-04-25T06:08:45;5.10;;;0.60;;
71773;SDS011;59607;52.130;5.430;2023-04-25T06:11:11;5.57;;;0.68;;
71773;SDS011;59607;52.130;5.430;2023-04-25T06:13:53;7.20;;;0.60;;
71773;SDS011;59607;52.130;5.430;2023-04-25T06:16:26;3.42;;;0.73;;
71773;SDS011;59607;52.130;5.430;2023-04-25T06:18:52;5.20;;;1.10;;
71773;SDS011;59607;52.130;5.430;2023-04-25T06:21:27;9.23;;;0.63;;
71773;SDS011;59607;52.130;5.430;2023-04-25T06:23:53;5.80;;;1.00;;
71773;SDS011;59607;52.130;5.430;2023-04-25T06:26:19;2.92;;;0.40;;
71773;SDS011;59607;52.130;5.430;2023-04-25T06:28:51;6.75;;;0.77;;
71773;SDS011;59607;52.130;5.430;2023-04-25T06:31:18;3.00;;;0.60;;
71773;SDS011;59607;52.130;5.430;2023-04-25T06:33:50;4.30;;;0.60;;
71773;SDS011;59607;52.130;5.430;2023-04-25T06:36:20;4.00;;;0.40;;
71773;SDS011;59607;52.130;5.430;2023-04-25T06:38:59;3.03;;;0.35;;
71773;SDS011;59607;52.130;5.430;2023-04-25T06:41:25;2.83;;;0.57;;
71773;SDS011;59607;52.130;5.430;2023-04-25T06:43:52;3.63;;;0.50;;
71773;SDS011;59607;52.130;5.430;2023-04-25T06:46:21;4.73;;;0.40;;
71773;SDS011;59607;52.130;5.430;2023-04-25T06:48:47;3.50;;;0.65;;
71773;SDS011;59607;52.130;5.430;2023-04-25T06:51:14;4.00;;;0.73;;
71773;SDS011;59607;52.130;5.430;2023-04-25T06:53:41;7.30;;;0.70;;
71773;SDS011;59607;52.130;5.430;2023-04-25T06:56:07;8.32;;;1.13;;
71773;SDS011;59607;52.130;5.430;2023-04-25T06:58:34;3.50;;;0.50;;
71773;SDS011;59607;52.130;5.430;2023-04-25T07:01:04;6.22;;;0.70;;
71773;SDS011;59607;52.130;5.430;2023-04-25T07:03:31;6.32;;;0.57;;
71773;SDS011;59607;52.130;5.430;2023-04-25T07:05:58;4.30;;;0.60;;
71773;SDS011;59607;52.130;5.430;2023-04-25T07:08:24;6.13;;;0.82;;
71773;SDS011;59607;52.130;5.430;2023-04-25T07:10:58;3.10;;;0.60;;
71773;SDS011;59607;52.130;5.430;2023-04-25T07:13:24;2.38;;;0.50;;
71773;SDS011;59607;52.130;5.430;2023-04-25T07:15:54;4.28;;;0.43;;
71773;SDS011;59607;52.130;5.430;2023-04-25T07:18:29;5.55;;;0.55;;
71773;SDS011;59607;52.130;5.430;2023-04-25T07:21:01;5.57;;;0.50;;
71773;SDS011;59607;52.130;5.430;2023-04-25T07:23:28;3.43;;;0.70;;
71773;SDS011;59607;52.130;5.430;2023-04-25T07:25:54;2.75;;;0.45;;
71773;SDS011;59607;52.130;5.430;2023-04-25T07:28:27;4.53;;;0.77;;
71773;SDS011;59607;52.130;5.430;2023-04-25T07:30:53;9.13;;;1.30;;
71773;SDS011;59607;52.130;5.430;2023-04-25T07:33:29;4.13;;;0.60;;
71773;SDS011;59607;52.130;5.430;2023-04-25T07:35:55;3.70;;;0.60;;
71773;SDS011;59607;52.130;5.430;2023-04-25T07:38:22;2.65;;;0.50;;
71773;SDS011;59607;52.130;5.430;2023-04-25T07:40:52;5.55;;;0.60;;
71773;SDS011;59607;52.130;5.430;2023-04-25T07:43:19;3.10;;;0.40;;
71773;SDS011;59607;52.130;5.430;2023-04-25T07:45:45;8.20;;;1.25;;
71773;SDS011;59607;52.130;5.430;2023-04-25T07:48:17;5.40;;;0.70;;
71773;SDS011;59607;52.130;5.430;2023-04-25T07:50:44;3.10;;;0.45;;
71773;SDS011;59607;52.130;5.430;2023-04-25T07:53:14;3.63;;;0.73;;
71773;SDS011;59607;52.130;5.430;2023-04-25T07:55:43;4.03;;;0.50;;
71773;SDS011;59607;52.130;5.430;2023-04-25T07:58:11;3.10;;;0.40;;
71773;SDS011;59607;52.130;5.430;2023-04-25T08:00:40;2.90;;;0.53;;
71773;SDS011;59607;52.130;5.430;2023-04-25T08:03:11;6.32;;;0.60;;
71773;SDS011;59607;52.130;5.430;2023-04-25T08:05:38;5.45;;;0.50;;
71773;SDS011;59607;52.130;5.430;2023-04-25T08:08:10;6.22;;;0.43;;
71773;SDS011;59607;52.130;5.430;2023-04-25T08:10:36;2.03;;;0.40;;
71773;SDS011;59607;52.130;5.430;2023-04-25T08:13:06;5.80;;;0.80;;
71773;SDS011;59607;52.130;5.430;2023-04-25T08:15:32;3.50;;;0.50;;
71773;SDS011;59607;52.130;5.430;2023-04-25T08:17:58;3.38;;;0.32;;
71773;SDS011;59607;52.130;5.430;2023-04-25T08:20:28;1.70;;;0.35;;
71773;SDS011;59607;52.130;5.430;2023-04-25T08:22:56;6.65;;;0.52;;
71773;SDS011;59607;52.130;5.430;2023-04-25T08:25:23;4.87;;;0.57;;
71773;SDS011;59607;52.130;5.430;2023-04-25T08:27:52;4.35;;;0.68;;
71773;SDS011;59607;52.130;5.430;2023-04-25T08:30:26;2.60;;;0.50;;
71773;SDS011;59607;52.130;5.430;2023-04-25T08:32:53;3.30;;;0.75;;
71773;SDS011;59607;52.130;5.430;2023-04-25T08:35:24;7.63;;;0.80;;
71773;SDS011;59607;52.130;5.430;2023-04-25T08:37:50;3.20;;;0.30;;
71773;SDS011;59607;52.130;5.430;2023-04-25T08:40:17;4.40;;;0.30;;
71773;SDS011;59607;52.130;5.430;2023-04-25T08:42:53;3.70;;;0.30;;
71773;SDS011;59607;52.130;5.430;2023-04-25T08:45:20;2.97;;;0.30;;
71773;SDS011;59607;52.130;5.430;2023-04-25T08:47:57;4.25;;;0.40;;
71773;SDS011;59607;52.130;5.430;2023-04-25T08:50:32;1.33;;;0.30;;
71773;SDS011;59607;52.130;5.430;2023-04-25T08:53:00;2.15;;;0.50;;
71773;SDS011;59607;52.130;5.430;2023-04-25T08:55:30;4.22;;;0.50;;
71773;SDS011;59607;52.130;5.430;2023-04-25T08:58:01;2.83;;;0.30;;
71773;SDS011;59607;52.130;5.430;2023-04-25T09:00:29;2.10;;;0.32;;
71773;SDS011;59607;52.130;5.430;2023-04-25T09:03:02;3.73;;;0.70;;
71773;SDS011;59607;52.130;5.430;2023-04-25T09:05:29;4.00;;;0.43;;
71773;SDS011;59607;52.130;5.430;2023-04-25T09:08:02;4.18;;;0.40;;
71773;SDS011;59607;52.130;5.430;2023-04-25T09:10:29;5.20;;;0.40;;
71773;SDS011;59607;52.130;5.430;2023-04-25T09:13:06;5.90;;;0.40;;
71773;SDS011;59607;52.130;5.430;2023-04-25T09:15:50;3.57;;;0.40;;
71773;SDS011;59607;52.130;5.430;2023-04-25T09:18:26;3.88;;;0.50;;
71773;SDS011;59607;52.130;5.430;2023-04-25T09:21:11;3.65;;;0.40;;
71773;SDS011;59607;52.130;5.430;2023-04-25T09:23:47;4.90;;;0.40;;
71773;SDS011;59607;52.130;5.430;2023-04-25T09:26:18;6.13;;;0.50;;
71773;SDS011;59607;52.130;5.430;2023-04-25T09:28:47;3.30;;;0.30;;
71773;SDS011;59607;52.130;5.430;2023-04-25T09:31:33;2.30;;;0.30;;
71773;SDS011;59607;52.130;5.430;2023-04-25T09:34:03;1.42;;;0.38;;
71773;SDS011;59607;52.130;5.430;2023-04-25T09:36:32;2.03;;;0.30;;
71773;SDS011;59607;52.130;5.430;2023-04-25T09:39:00;3.50;;;0.40;;
71773;SDS011;59607;52.130;5.430;2023-04-25T09:41:27;5.67;;;0.50;;
71773;SDS011;59607;52.130;5.430;2023-04-25T09:43:56;5.05;;;0.40;;
71773;SDS011;59607;52.130;5.430;2023-04-25T09:46:33;4.63;;;0.28;;
71773;SDS011;59607;52.130;5.430;2023-04-25T09:49:11;1.92;;;0.30;;
71773;SDS011;59607;52.130;5.430;2023-04-25T09:51:58;2.22;;;0.60;;
71773;SDS011;59607;52.130;5.430;2023-04-25T09:54:30;3.00;;;0.50;;
71773;SDS011;59607;52.130;5.430;2023-04-25T09:56:57;1.05;;;0.20;;
71773;SDS011;59607;52.130;5.430;2023-04-25T09:59:32;4.22;;;0.30;;
71773;SDS011;59607;52.130;5.430;2023-04-25T10:02:03;3.22;;;0.50;;
71773;SDS011;59607;52.130;5.430;2023-04-25T10:04:35;3.22;;;0.40;;
71773;SDS011;59607;52.130;5.430;2023-04-25T10:07:03;0.90;;;0.30;;
71773;SDS011;59607;52.130;5.430;2023-04-25T10:09:49;2.25;;;0.40;;
71773;SDS011;59607;52.130;5.430;2023-04-25T10:12:20;2.00;;;0.40;;
71773;SDS011;59607;52.130;5.430;2023-04-25T10:14:46;2.63;;;0.73;;
71773;SDS011;59607;52.130;5.430;2023-04-25T10:17:13;2.72;;;0.30;;
71773;SDS011;59607;52.130;5.430;2023-04-25T10:19:48;5.10;;;0.30;;
71773;SDS011;59607;52.130;5.430;2023-04-25T10:22:32;2.05;;;0.30;;
71773;SDS011;59607;52.130;5.430;2023-04-25T10:25:07;2.63;;;0.40;;
71773;SDS011;59607;52.130;5.430;2023-04-25T10:27:35;1.67;;;0.30;;
71773;SDS011;59607;52.130;5.430;2023-04-25T10:30:15;4.55;;;0.98;;
71773;SDS011;59607;52.130;5.430;2023-04-25T10:32:46;2.60;;;0.40;;
71773;SDS011;59607;52.130;5.430;2023-04-25T10:35:18;2.10;;;0.30;;
71773;SDS011;59607;52.130;5.430;2023-04-25T10:38:04;2.15;;;0.30;;
71773;SDS011;59607;52.130;5.430;2023-04-25T10:40:37;2.45;;;0.50;;
71773;SDS011;59607;52.130;5.430;2023-04-25T10:49:02;2.00;;;0.30;;
71773;SDS011;59607;52.130;5.430;2023-04-25T10:54:23;2.55;;;0.40;;
71773;SDS011;59607;52.130;5.430;2023-04-25T10:56:52;3.08;;;0.30;;
71773;SDS011;59607;52.130;5.430;2023-04-25T10:59:26;2.50;;;0.30;;
71773;SDS011;59607;52.130;5.430;2023-04-25T11:01:54;2.40;;;0.20;;
71773;SDS011;59607;52.130;5.430;2023-04-25T11:04:40;2.60;;;0.32;;
71773;SDS011;59607;52.130;5.430;2023-04-25T11:09:54;2.40;;;0.40;;
71773;SDS011;59607;52.130;5.430;2023-04-25T11:12:21;2.67;;;0.40;;
71773;SDS011;59607;52.130;5.430;2023-04-25T11:14:54;2.78;;;0.60;;
71773;SDS011;59607;52.130;5.430;2023-04-25T11:17:24;1.70;;;0.28;;
71773;SDS011;59607;52.130;5.430;2023-04-25T11:19:54;6.32;;;0.40;;
71773;SDS011;59607;52.130;5.430;2023-04-25T11:22:26;5.43;;;0.88;;
71773;SDS011;59607;52.130;5.430;2023-04-25T11:25:07;3.33;;;0.47;;
71773;SDS011;59607;52.130;5.430;2023-04-25T11:27:55;1.60;;;0.40;;
71773;SDS011;59607;52.130;5.430;2023-04-25T11:30:26;5.03;;;0.50;;
71773;SDS011;59607;52.130;5.430;2023-04-25T11:32:53;1.52;;;0.40;;
71773;SDS011;59607;52.130;5.430;2023-04-25T11:35:23;3.70;;;0.45;;
71773;SDS011;59607;52.130;5.430;2023-04-25T11:37:53;4.50;;;0.60;;
71773;SDS011;59607;52.130;5.430;2023-04-25T11:40:22;1.58;;;0.30;;
71773;SDS011;59607;52.130;5.430;2023-04-25T11:42:59;2.33;;;0.30;;
71773;SDS011;59607;52.130;5.430;2023-04-25T11:45:28;5.18;;;0.50;;
71773;SDS011;59607;52.130;5.430;2023-04-25T11:48:01;4.13;;;0.30;;
71773;SDS011;59607;52.130;5.430;2023-04-25T11:50:36;3.13;;;0.40;;
71773;SDS011;59607;52.130;5.430;2023-04-25T11:53:08;2.58;;;0.38;;
71773;SDS011;59607;52.130;5.430;2023-04-25T11:55:39;1.77;;;0.40;;
71773;SDS011;59607;52.130;5.430;2023-04-25T11:58:06;2.92;;;0.50;;
71773;SDS011;59607;52.130;5.430;2023-04-25T12:00:33;1.25;;;0.20;;
71773;SDS011;59607;52.130;5.430;2023-04-25T12:03:03;4.40;;;0.73;;
71773;SDS011;59607;52.130;5.430;2023-04-25T12:05:30;2.95;;;0.40;;
71773;SDS011;59607;52.130;5.430;2023-04-25T12:08:09;3.17;;;0.30;;
71773;SDS011;59607;52.130;5.430;2023-04-25T12:10:53;2.78;;;0.60;;
71773;SDS011;59607;52.130;5.430;2023-04-25T12:13:22;3.15;;;0.50;;
71773;SDS011;59607;52.130;5.430;2023-04-25T12:15:56;2.77;;;0.40;;
71773;SDS011;59607;52.130;5.430;2023-04-25T12:18:32;4.25;;;0.40;;
71773;SDS011;59607;52.130;5.430;2023-04-25T12:21:02;2.85;;;0.50;;
71773;SDS011;59607;52.130;5.430;2023-04-25T12:23:47;3.50;;;0.68;;
71773;SDS011;59607;52.130;5.430;2023-04-25T12:26:17;1.63;;;0.30;;
71773;SDS011;59607;52.130;5.430;2023-04-25T12:28:48;1.13;;;0.30;;
71773;SDS011;59607;52.130;5.430;2023-04-25T12:31:19;2.20;;;0.40;;
71773;SDS011;59607;52.130;5.430;2023-04-25T12:33:45;1.67;;;0.30;;
71773;SDS011;59607;52.130;5.430;2023-04-25T12:36:16;2.25;;;0.80;;
71773;SDS011;59607;52.130;5.430;2023-04-25T12:38:48;1.10;;;0.57;;
71773;SDS011;59607;52.130;5.430;2023-04-25T12:41:16;2.53;;;0.40;;
71773;SDS011;59607;52.130;5.430;2023-04-25T12:43:46;2.83;;;0.30;;
71773;SDS011;59607;52.130;5.430;2023-04-25T12:46:12;1.77;;;0.30;;
71773;SDS011;59607;52.130;5.430;2023-04-25T12:48:39;3.10;;;0.40;;
71773;SDS011;59607;52.130;5.430;2023-04-25T12:51:12;2.33;;;0.60;;
71773;SDS011;59607;52.130;5.430;2023-04-25T12:53:38;2.47;;;0.30;;
71773;SDS011;59607;52.130;5.430;2023-04-25T12:56:09;3.38;;;0.40;;
71773;SDS011;59607;52.130;5.430;2023-04-25T12:58:43;3.42;;;0.30;;
71773;SDS011;59607;52.130;5.430;2023-04-25T13:01:10;3.95;;;0.70;;
71773;SDS011;59607;52.130;5.430;2023-04-25T13:03:43;2.75;;;0.30;;
71773;SDS011;59607;52.130;5.430;2023-04-25T13:06:09;1.97;;;0.43;;
71773;SDS011;59607;52.130;5.430;2023-04-25T13:08:42;2.83;;;0.40;;
71773;SDS011;59607;52.130;5.430;2023-04-25T13:11:09;2.33;;;0.30;;
71773;SDS011;59607;52.130;5.430;2023-04-25T13:13:37;2.75;;;0.30;;
71773;SDS011;59607;52.130;5.430;2023-04-25T13:16:13;0.98;;;0.30;;
71773;SDS011;59607;52.130;5.430;2023-04-25T13:18:43;1.20;;;0.30;;
71773;SDS011;59607;52.130;5.430;2023-04-25T13:21:12;1.50;;;0.30;;
71773;SDS011;59607;52.130;5.430;2023-04-25T13:23:40;3.10;;;0.40;;
71773;SDS011;59607;52.130;5.430;2023-04-25T13:26:16;1.95;;;0.57;;
71773;SDS011;59607;52.130;5.430;2023-04-25T13:28:42;2.20;;;0.50;;
71773;SDS011;59607;52.130;5.430;2023-04-25T13:31:14;3.60;;;0.60;;
71773;SDS011;59607;52.130;5.430;2023-04-25T13:33:40;2.85;;;0.60;;
71773;SDS011;59607;52.130;5.430;2023-04-25T13:36:07;3.83;;;0.50;;
71773;SDS011;59607;52.130;5.430;2023-04-25T13:38:37;2.42;;;0.32;;
71773;SDS011;59607;52.130;5.430;2023-04-25T13:41:05;1.60;;;0.35;;
71773;SDS011;59607;52.130;5.430;2023-04-25T13:43:33;5.50;;;0.77;;
71773;SDS011;59607;52.130;5.430;2023-04-25T13:46:04;3.58;;;0.30;;
71773;SDS011;59607;52.130;5.430;2023-04-25T13:48:36;2.35;;;0.50;;
71773;SDS011;59607;52.130;5.430;2023-04-25T13:51:05;1.60;;;0.40;;
71773;SDS011;59607;52.130;5.430;2023-04-25T13:53:32;2.40;;;0.40;;
71773;SDS011;59607;52.130;5.430;2023-04-25T13:56:04;2.50;;;0.40;;
71773;SDS011;59607;52.130;5.430;2023-04-25T13:58:34;2.80;;;0.43;;
71773;SDS011;59607;52.130;5.430;2023-04-25T14:01:06;2.28;;;0.40;;
71773;SDS011;59607;52.130;5.430;2023-04-25T14:03:32;1.70;;;0.30;;
71773;SDS011;59607;52.130;5.430;2023-04-25T14:05:59;1.17;;;0.40;;
71773;SDS011;59607;52.130;5.430;2023-04-25T14:08:28;3.60;;;0.30;;
71773;SDS011;59607;52.130;5.430;2023-04-25T14:10:58;2.22;;;0.40;;
71773;SDS011;59607;52.130;5.430;2023-04-25T14:13:24;1.83;;;0.30;;
71773;SDS011;59607;52.130;5.430;2023-04-25T14:15:58;2.47;;;0.40;;
71773;SDS011;59607;52.130;5.430;2023-04-25T14:18:25;2.03;;;0.40;;
71773;SDS011;59607;52.130;5.430;2023-04-25T14:20:52;6.57;;;0.40;;
71773;SDS011;59607;52.130;5.430;2023-04-25T14:23:38;1.58;;;0.30;;
71773;SDS011;59607;52.130;5.430;2023-04-25T14:26:04;3.47;;;0.47;;
71773;SDS011;59607;52.130;5.430;2023-04-25T14:28:31;4.18;;;0.32;;
71773;SDS011;59607;52.130;5.430;2023-04-25T14:30:58;2.03;;;0.30;;
71773;SDS011;59607;52.130;5.430;2023-04-25T14:33:29;2.60;;;0.40;;
71773;SDS011;59607;52.130;5.430;2023-04-25T14:35:56;3.17;;;0.40;;
71773;SDS011;59607;52.130;5.430;2023-04-25T14:38:23;3.28;;;0.40;;
71773;SDS011;59607;52.130;5.430;2023-04-25T14:40:53;1.52;;;0.40;;
71773;SDS011;59607;52.130;5.430;2023-04-25T14:43:20;4.97;;;0.30;;
71773;SDS011;59607;52.130;5.430;2023-04-25T14:45:46;2.20;;;0.50;;
71773;SDS011;59607;52.130;5.430;2023-04-25T14:48:19;3.17;;;0.30;;
71773;SDS011;59607;52.130;5.430;2023-04-25T14:50:46;3.08;;;0.30;;
71773;SDS011;59607;52.130;5.430;2023-04-25T14:53:15;2.05;;;0.57;;
71773;SDS011;59607;52.130;5.430;2023-04-25T14:55:42;1.55;;;0.30;;
71773;SDS011;59607;52.130;5.430;2023-04-25T14:58:08;2.03;;;0.30;;
71773;SDS011;59607;52.130;5.430;2023-04-25T15:00:35;1.58;;;0.45;;
71773;SDS011;59607;52.130;5.430;2023-04-25T15:03:16;2.30;;;0.40;;
71773;SDS011;59607;52.130;5.430;2023-04-25T15:05:56;2.13;;;0.30;;
71773;SDS011;59607;52.130;5.430;2023-04-25T15:08:43;2.15;;;0.40;;
71773;SDS011;59607;52.130;5.430;2023-04-25T15:11:10;1.67;;;0.30;;
71773;SDS011;59607;52.130;5.430;2023-04-25T15:13:37;1.90;;;0.30;;
71773;SDS011;59607;52.130;5.430;2023-04-25T15:16:03;3.15;;;0.30;;